sensor_id;sensor_type;location;lat;lon;timestamp;P1;durP1;ratioP1;P2;durP2;ratioP2
41556;SDS011;27720;51.992;5.890;2023-06-26T00:01:17;4.93;;;3.40;;
41556;SDS011;27720;51.992;5.890;2023-06-26T00:03:46;4.30;;;3.37;;
41556;SDS011;27720;51.992;5.890;2023-06-26T00:06:12;5.70;;;3.60;;
41556;SDS011;27720;51.992;5.890;2023-06-26T00:08:38;5.38;;;3.47;;
41556;SDS011;27720;51.992;5.890;2023-06-26T00:11:04;5.03;;;3.90;;
41556;SDS011;27720;51.992;5.890;2023-06-26T00:13:30;4.35;;;3.35;;
41556;SDS011;27720;51.992;5.890;2023-06-26T00:15:56;4.30;;;3.17;;
41556;SDS011;27720;51.992;5.890;2023-06-26T00:18:22;5.10;;;3.88;;
41556;SDS011;27720;51.992;5.890;2023-06-26T00:20:49;4.97;;;3.72;;
41556;SDS011;27720;51.992;5.890;2023-06-26T00:23:16;4.55;;;3.15;;
41556;SDS011;27720;51.992;5.890;2023-06-26T00:25:42;3.60;;;2.85;;
41556;SDS011;27720;51.992;5.890;2023-06-26T00:28:11;4.90;;;3.20;;
41556;SDS011;27720;51.992;5.890;2023-06-26T00:30:37;5.63;;;3.65;;
41556;SDS011;27720;51.992;5.890;2023-06-26T00:33:03;5.15;;;3.50;;
41556;SDS011;27720;51.992;5.890;2023-06-26T00:35:30;5.15;;;3.38;;
41556;SDS011;27720;51.992;5.890;2023-06-26T00:37:56;4.80;;;3.47;;
41556;SDS011;27720;51.992;5.890;2023-06-26T00:40:22;4.43;;;3.55;;
41556;SDS011;27720;51.992;5.890;2023-06-26T00:42:47;6.43;;;3.72;;
41556;SDS011;27720;51.992;5.890;2023-06-26T00:45:13;7.32;;;3.97;;
41556;SDS011;27720;51.992;5.890;2023-06-26T00:47:39;5.45;;;3.40;;
41556;SDS011;27720;51.992;5.890;2023-06-26T00:50:05;4.82;;;3.42;;
41556;SDS011;27720;51.992;5.890;2023-06-26T00:52:32;5.80;;;3.90;;
41556;SDS011;27720;51.992;5.890;2023-06-26T00:54:58;5.10;;;3.50;;
41556;SDS011;27720;51.992;5.890;2023-06-26T00:57:24;4.60;;;3.08;;
41556;SDS011;27720;51.992;5.890;2023-06-26T00:59:52;4.50;;;3.38;;
41556;SDS011;27720;51.992;5.890;2023-06-26T01:02:20;5.10;;;3.67;;
41556;SDS011;27720;51.992;5.890;2023-06-26T01:04:49;5.32;;;3.50;;
41556;SDS011;27720;51.992;5.890;2023-06-26T01:07:15;4.20;;;3.05;;
41556;SDS011;27720;51.992;5.890;2023-06-26T01:09:44;5.25;;;3.00;;
41556;SDS011;27720;51.992;5.890;2023-06-26T01:12:11;5.53;;;3.50;;
41556;SDS011;27720;51.992;5.890;2023-06-26T01:14:37;4.40;;;3.42;;
41556;SDS011;27720;51.992;5.890;2023-06-26T01:17:03;5.20;;;3.45;;
41556;SDS011;27720;51.992;5.890;2023-06-26T01:19:29;5.32;;;3.08;;
41556;SDS011;27720;51.992;5.890;2023-06-26T01:25:03;4.68;;;3.42;;
41556;SDS011;27720;51.992;5.890;2023-06-26T01:27:47;5.72;;;3.90;;
41556;SDS011;27720;51.992;5.890;2023-06-26T01:30:15;4.65;;;3.58;;
41556;SDS011;27720;51.992;5.890;2023-06-26T01:32:43;5.38;;;3.60;;
41556;SDS011;27720;51.992;5.890;2023-06-26T01:35:10;5.43;;;3.55;;
41556;SDS011;27720;51.992;5.890;2023-06-26T01:37:37;7.65;;;3.53;;
41556;SDS011;27720;51.992;5.890;2023-06-26T01:40:03;5.30;;;3.50;;
41556;SDS011;27720;51.992;5.890;2023-06-26T01:42:34;5.57;;;3.63;;
41556;SDS011;27720;51.992;5.890;2023-06-26T01:45:07;6.47;;;3.63;;
41556;SDS011;27720;51.992;5.890;2023-06-26T01:47:40;5.15;;;3.70;;
41556;SDS011;27720;51.992;5.890;2023-06-26T01:50:11;5.63;;;3.70;;
41556;SDS011;27720;51.992;5.890;2023-06-26T01:52:49;6.03;;;3.33;;
41556;SDS011;27720;51.992;5.890;2023-06-26T01:55:34;5.25;;;3.53;;
41556;SDS011;27720;51.992;5.890;2023-06-26T01:58:25;5.15;;;3.55;;
41556;SDS011;27720;51.992;5.890;2023-06-26T02:00:52;4.45;;;3.35;;
41556;SDS011;27720;51.992;5.890;2023-06-26T02:03:18;4.38;;;2.97;;
41556;SDS011;27720;51.992;5.890;2023-06-26T02:05:45;5.97;;;3.85;;
41556;SDS011;27720;51.992;5.890;2023-06-26T02:08:13;5.78;;;3.63;;
41556;SDS011;27720;51.992;5.890;2023-06-26T02:10:47;4.32;;;3.00;;
41556;SDS011;27720;51.992;5.890;2023-06-26T02:13:15;6.13;;;3.90;;
41556;SDS011;27720;51.992;5.890;2023-06-26T02:15:41;5.07;;;3.17;;
41556;SDS011;27720;51.992;5.890;2023-06-26T02:18:07;5.18;;;3.00;;
41556;SDS011;27720;51.992;5.890;2023-06-26T02:20:33;5.50;;;3.08;;
41556;SDS011;27720;51.992;5.890;2023-06-26T02:22:59;4.60;;;2.40;;
41556;SDS011;27720;51.992;5.890;2023-06-26T02:25:25;4.22;;;2.95;;
41556;SDS011;27720;51.992;5.890;2023-06-26T02:27:51;4.75;;;2.13;;
41556;SDS011;27720;51.992;5.890;2023-06-26T02:30:18;3.55;;;2.17;;
41556;SDS011;27720;51.992;5.890;2023-06-26T02:32:44;6.28;;;2.20;;
41556;SDS011;27720;51.992;5.890;2023-06-26T02:35:10;4.38;;;2.40;;
41556;SDS011;27720;51.992;5.890;2023-06-26T02:37:40;5.13;;;2.45;;
41556;SDS011;27720;51.992;5.890;2023-06-26T02:40:07;4.50;;;1.88;;
41556;SDS011;27720;51.992;5.890;2023-06-26T02:42:35;3.00;;;1.70;;
41556;SDS011;27720;51.992;5.890;2023-06-26T02:45:01;3.60;;;2.20;;
41556;SDS011;27720;51.992;5.890;2023-06-26T02:47:30;3.28;;;1.63;;
41556;SDS011;27720;51.992;5.890;2023-06-26T02:49:55;3.40;;;2.00;;
41556;SDS011;27720;51.992;5.890;2023-06-26T02:52:21;2.90;;;1.73;;
41556;SDS011;27720;51.992;5.890;2023-06-26T02:54:47;3.80;;;1.98;;
41556;SDS011;27720;51.992;5.890;2023-06-26T02:57:13;3.55;;;2.10;;
41556;SDS011;27720;51.992;5.890;2023-06-26T02:59:40;5.75;;;1.98;;
41556;SDS011;27720;51.992;5.890;2023-06-26T03:02:07;2.45;;;1.60;;
41556;SDS011;27720;51.992;5.890;2023-06-26T03:04:43;3.42;;;1.77;;
41556;SDS011;27720;51.992;5.890;2023-06-26T03:07:11;3.05;;;1.50;;
41556;SDS011;27720;51.992;5.890;2023-06-26T03:09:39;4.28;;;1.85;;
41556;SDS011;27720;51.992;5.890;2023-06-26T03:12:06;3.05;;;1.30;;
41556;SDS011;27720;51.992;5.890;2023-06-26T03:14:33;4.20;;;1.85;;
41556;SDS011;27720;51.992;5.890;2023-06-26T03:16:59;4.97;;;1.90;;
41556;SDS011;27720;51.992;5.890;2023-06-26T03:19:29;5.35;;;2.03;;
41556;SDS011;27720;51.992;5.890;2023-06-26T03:22:28;4.53;;;2.10;;
41556;SDS011;27720;51.992;5.890;2023-06-26T03:24:53;4.53;;;1.88;;
41556;SDS011;27720;51.992;5.890;2023-06-26T03:27:20;3.80;;;1.80;;
41556;SDS011;27720;51.992;5.890;2023-06-26T03:29:48;4.60;;;1.70;;
41556;SDS011;27720;51.992;5.890;2023-06-26T03:32:14;2.88;;;1.42;;
41556;SDS011;27720;51.992;5.890;2023-06-26T03:34:40;4.93;;;1.52;;
41556;SDS011;27720;51.992;5.890;2023-06-26T03:37:06;2.90;;;1.75;;
41556;SDS011;27720;51.992;5.890;2023-06-26T03:39:32;3.78;;;1.70;;
41556;SDS011;27720;51.992;5.890;2023-06-26T03:41:58;5.13;;;1.55;;
41556;SDS011;27720;51.992;5.890;2023-06-26T03:44:26;3.15;;;1.42;;
41556;SDS011;27720;51.992;5.890;2023-06-26T03:46:52;4.30;;;1.55;;
41556;SDS011;27720;51.992;5.890;2023-06-26T03:49:18;3.00;;;1.00;;
41556;SDS011;27720;51.992;5.890;2023-06-26T03:51:44;3.40;;;1.40;;
41556;SDS011;27720;51.992;5.890;2023-06-26T03:54:10;4.43;;;1.92;;
41556;SDS011;27720;51.992;5.890;2023-06-26T03:56:36;5.90;;;1.90;;
41556;SDS011;27720;51.992;5.890;2023-06-26T03:59:04;5.40;;;1.90;;
41556;SDS011;27720;51.992;5.890;2023-06-26T04:01:30;7.53;;;1.98;;
41556;SDS011;27720;51.992;5.890;2023-06-26T04:03:56;3.90;;;1.45;;
41556;SDS011;27720;51.992;5.890;2023-06-26T04:06:22;3.95;;;1.55;;
41556;SDS011;27720;51.992;5.890;2023-06-26T04:08:47;2.70;;;1.45;;
41556;SDS011;27720;51.992;5.890;2023-06-26T04:11:15;4.43;;;1.70;;
41556;SDS011;27720;51.992;5.890;2023-06-26T04:13:40;5.45;;;1.88;;
41556;SDS011;27720;51.992;5.890;2023-06-26T04:16:06;6.80;;;1.70;;
41556;SDS011;27720;51.992;5.890;2023-06-26T04:18:32;3.80;;;1.63;;
41556;SDS011;27720;51.992;5.890;2023-06-26T04:21:31;5.28;;;1.50;;
41556;SDS011;27720;51.992;5.890;2023-06-26T04:23:50;3.33;;;1.63;;
41556;SDS011;27720;51.992;5.890;2023-06-26T04:26:16;7.15;;;2.08;;
41556;SDS011;27720;51.992;5.890;2023-06-26T04:28:41;9.07;;;2.20;;
41556;SDS011;27720;51.992;5.890;2023-06-26T04:31:08;6.60;;;2.50;;
41556;SDS011;27720;51.992;5.890;2023-06-26T04:33:34;5.78;;;2.00;;
41556;SDS011;27720;51.992;5.890;2023-06-26T04:36:03;5.27;;;2.07;;
41556;SDS011;27720;51.992;5.890;2023-06-26T04:38:32;4.43;;;1.80;;
41556;SDS011;27720;51.992;5.890;2023-06-26T04:40:59;5.70;;;2.15;;
41556;SDS011;27720;51.992;5.890;2023-06-26T04:43:26;5.93;;;2.22;;
41556;SDS011;27720;51.992;5.890;2023-06-26T04:45:51;4.53;;;1.75;;
41556;SDS011;27720;51.992;5.890;2023-06-26T04:48:17;9.43;;;2.28;;
41556;SDS011;27720;51.992;5.890;2023-06-26T04:50:43;4.72;;;2.30;;
41556;SDS011;27720;51.992;5.890;2023-06-26T04:53:11;4.55;;;2.15;;
41556;SDS011;27720;51.992;5.890;2023-06-26T04:55:36;5.57;;;2.40;;
41556;SDS011;27720;51.992;5.890;2023-06-26T04:58:02;7.38;;;2.42;;
41556;SDS011;27720;51.992;5.890;2023-06-26T05:00:28;7.63;;;2.47;;
41556;SDS011;27720;51.992;5.890;2023-06-26T05:02:56;6.22;;;2.05;;
41556;SDS011;27720;51.992;5.890;2023-06-26T05:05:28;5.25;;;3.17;;
41556;SDS011;27720;51.992;5.890;2023-06-26T05:07:54;5.22;;;1.92;;
41556;SDS011;27720;51.992;5.890;2023-06-26T05:10:21;4.80;;;1.95;;
41556;SDS011;27720;51.992;5.890;2023-06-26T05:12:47;5.65;;;2.08;;
41556;SDS011;27720;51.992;5.890;2023-06-26T05:15:14;5.03;;;1.90;;
41556;SDS011;27720;51.992;5.890;2023-06-26T05:17:40;6.03;;;1.77;;
41556;SDS011;27720;51.992;5.890;2023-06-26T05:20:06;6.05;;;2.08;;
41556;SDS011;27720;51.992;5.890;2023-06-26T05:22:32;5.47;;;2.60;;
41556;SDS011;27720;51.992;5.890;2023-06-26T05:25:00;5.30;;;1.70;;
41556;SDS011;27720;51.992;5.890;2023-06-26T05:27:28;5.45;;;2.17;;
41556;SDS011;27720;51.992;5.890;2023-06-26T05:29:54;4.47;;;1.60;;
41556;SDS011;27720;51.992;5.890;2023-06-26T05:32:20;4.47;;;2.05;;
41556;SDS011;27720;51.992;5.890;2023-06-26T05:34:49;5.53;;;2.17;;
41556;SDS011;27720;51.992;5.890;2023-06-26T05:37:20;6.20;;;2.10;;
41556;SDS011;27720;51.992;5.890;2023-06-26T05:39:47;9.65;;;2.58;;
41556;SDS011;27720;51.992;5.890;2023-06-26T05:42:13;6.30;;;2.30;;
41556;SDS011;27720;51.992;5.890;2023-06-26T05:44:40;8.98;;;2.25;;
41556;SDS011;27720;51.992;5.890;2023-06-26T05:47:05;6.55;;;1.70;;
41556;SDS011;27720;51.992;5.890;2023-06-26T05:49:31;8.45;;;2.30;;
41556;SDS011;27720;51.992;5.890;2023-06-26T05:51:58;6.47;;;2.05;;
41556;SDS011;27720;51.992;5.890;2023-06-26T05:54:24;4.38;;;1.40;;
41556;SDS011;27720;51.992;5.890;2023-06-26T05:56:52;4.95;;;1.88;;
41556;SDS011;27720;51.992;5.890;2023-06-26T05:59:24;5.45;;;1.52;;
41556;SDS011;27720;51.992;5.890;2023-06-26T06:01:51;4.75;;;1.92;;
41556;SDS011;27720;51.992;5.890;2023-06-26T06:04:17;4.68;;;1.77;;
41556;SDS011;27720;51.992;5.890;2023-06-26T06:06:43;4.90;;;1.77;;
41556;SDS011;27720;51.992;5.890;2023-06-26T06:09:09;4.72;;;1.92;;
41556;SDS011;27720;51.992;5.890;2023-06-26T06:11:35;2.85;;;1.40;;
41556;SDS011;27720;51.992;5.890;2023-06-26T06:14:00;2.92;;;1.38;;
41556;SDS011;27720;51.992;5.890;2023-06-26T06:16:26;3.33;;;1.70;;
41556;SDS011;27720;51.992;5.890;2023-06-26T06:18:54;5.03;;;1.38;;
41556;SDS011;27720;51.992;5.890;2023-06-26T06:21:19;2.17;;;1.27;;
41556;SDS011;27720;51.992;5.890;2023-06-26T06:23:45;2.65;;;1.33;;
41556;SDS011;27720;51.992;5.890;2023-06-26T06:26:11;7.07;;;1.60;;
41556;SDS011;27720;51.992;5.890;2023-06-26T06:28:38;5.00;;;1.40;;
41556;SDS011;27720;51.992;5.890;2023-06-26T06:31:04;2.60;;;1.20;;
41556;SDS011;27720;51.992;5.890;2023-06-26T06:33:30;2.20;;;1.20;;
41556;SDS011;27720;51.992;5.890;2023-06-26T06:35:56;2.42;;;1.08;;
41556;SDS011;27720;51.992;5.890;2023-06-26T06:38:22;3.05;;;1.35;;
41556;SDS011;27720;51.992;5.890;2023-06-26T06:40:47;2.20;;;0.93;;
41556;SDS011;27720;51.992;5.890;2023-06-26T06:43:13;4.05;;;1.15;;
41556;SDS011;27720;51.992;5.890;2023-06-26T06:45:39;3.47;;;0.82;;
41556;SDS011;27720;51.992;5.890;2023-06-26T06:48:05;3.30;;;1.13;;
41556;SDS011;27720;51.992;5.890;2023-06-26T06:50:31;2.85;;;1.10;;
41556;SDS011;27720;51.992;5.890;2023-06-26T06:52:56;1.95;;;1.08;;
41556;SDS011;27720;51.992;5.890;2023-06-26T06:55:22;3.75;;;1.10;;
41556;SDS011;27720;51.992;5.890;2023-06-26T06:57:49;2.63;;;1.10;;
41556;SDS011;27720;51.992;5.890;2023-06-26T07:00:15;4.72;;;1.27;;
41556;SDS011;27720;51.992;5.890;2023-06-26T07:02:50;4.70;;;1.50;;
41556;SDS011;27720;51.992;5.890;2023-06-26T09:40:47;2.15;;;0.57;;
41556;SDS011;27720;51.992;5.890;2023-06-26T09:43:13;1.90;;;0.50;;
41556;SDS011;27720;51.992;5.890;2023-06-26T09:45:39;1.45;;;0.50;;
41556;SDS011;27720;51.992;5.890;2023-06-26T09:48:05;1.67;;;0.40;;
41556;SDS011;27720;51.992;5.890;2023-06-26T09:50:34;2.88;;;0.50;;
41556;SDS011;27720;51.992;5.890;2023-06-26T09:53:08;1.52;;;0.63;;
41556;SDS011;27720;51.992;5.890;2023-06-26T09:55:35;1.58;;;0.60;;
41556;SDS011;27720;51.992;5.890;2023-06-26T09:58:05;1.10;;;0.65;;
41556;SDS011;27720;51.992;5.890;2023-06-26T10:00:31;1.35;;;0.40;;
41556;SDS011;27720;51.992;5.890;2023-06-26T10:02:58;1.83;;;0.45;;
41556;SDS011;27720;51.992;5.890;2023-06-26T10:05:24;1.80;;;0.60;;
41556;SDS011;27720;51.992;5.890;2023-06-26T10:07:50;1.85;;;0.60;;
41556;SDS011;27720;51.992;5.890;2023-06-26T10:10:17;3.13;;;0.50;;
41556;SDS011;27720;51.992;5.890;2023-06-26T10:12:44;3.65;;;0.63;;
41556;SDS011;27720;51.992;5.890;2023-06-26T10:15:13;3.05;;;0.55;;
41556;SDS011;27720;51.992;5.890;2023-06-26T10:17:42;1.92;;;0.40;;
41556;SDS011;27720;51.992;5.890;2023-06-26T10:20:11;2.40;;;0.60;;
41556;SDS011;27720;51.992;5.890;2023-06-26T10:22:46;1.42;;;0.50;;
41556;SDS011;27720;51.992;5.890;2023-06-26T10:25:14;2.88;;;0.68;;
41556;SDS011;27720;51.992;5.890;2023-06-26T10:27:45;1.85;;;0.63;;
41556;SDS011;27720;51.992;5.890;2023-06-26T10:30:15;1.65;;;0.63;;
41556;SDS011;27720;51.992;5.890;2023-06-26T10:32:45;4.25;;;0.40;;
41556;SDS011;27720;51.992;5.890;2023-06-26T10:35:12;1.17;;;0.60;;
41556;SDS011;27720;51.992;5.890;2023-06-26T10:37:40;2.67;;;0.40;;
41556;SDS011;27720;51.992;5.890;2023-06-26T10:40:10;1.00;;;0.45;;
41556;SDS011;27720;51.992;5.890;2023-06-26T10:42:38;1.95;;;0.57;;
41556;SDS011;27720;51.992;5.890;2023-06-26T10:45:43;2.17;;;0.50;;
41556;SDS011;27720;51.992;5.890;2023-06-26T10:47:58;2.15;;;0.50;;
41556;SDS011;27720;51.992;5.890;2023-06-26T10:50:27;2.55;;;0.68;;
41556;SDS011;27720;51.992;5.890;2023-06-26T10:55:55;2.13;;;0.47;;
41556;SDS011;27720;51.992;5.890;2023-06-26T10:58:32;1.10;;;0.40;;
41556;SDS011;27720;51.992;5.890;2023-06-26T11:03:40;0.65;;;0.30;;
41556;SDS011;27720;51.992;5.890;2023-06-26T11:06:09;0.68;;;0.30;;
41556;SDS011;27720;51.992;5.890;2023-06-26T11:08:49;1.15;;;0.40;;
41556;SDS011;27720;51.992;5.890;2023-06-26T11:14:24;2.33;;;0.77;;
41556;SDS011;27720;51.992;5.890;2023-06-26T11:16:52;0.63;;;0.30;;
41556;SDS011;27720;51.992;5.890;2023-06-26T11:19:20;1.75;;;0.45;;
41556;SDS011;27720;51.992;5.890;2023-06-26T11:21:46;1.38;;;1.00;;
41556;SDS011;27720;51.992;5.890;2023-06-26T11:24:14;1.15;;;0.45;;
41556;SDS011;27720;51.992;5.890;2023-06-26T11:26:41;1.80;;;0.40;;
41556;SDS011;27720;51.992;5.890;2023-06-26T11:29:09;1.17;;;0.43;;
41556;SDS011;27720;51.992;5.890;2023-06-26T11:31:45;0.70;;;0.40;;
41556;SDS011;27720;51.992;5.890;2023-06-26T11:34:12;1.30;;;0.40;;
41556;SDS011;27720;51.992;5.890;2023-06-26T11:36:39;0.60;;;0.30;;
41556;SDS011;27720;51.992;5.890;2023-06-26T11:39:07;1.95;;;0.30;;
41556;SDS011;27720;51.992;5.890;2023-06-26T11:41:34;2.45;;;0.50;;
41556;SDS011;27720;51.992;5.890;2023-06-26T11:44:01;1.52;;;0.50;;
41556;SDS011;27720;51.992;5.890;2023-06-26T11:46:29;1.38;;;0.50;;
41556;SDS011;27720;51.992;5.890;2023-06-26T11:48:56;1.48;;;0.38;;
41556;SDS011;27720;51.992;5.890;2023-06-26T11:51:22;1.60;;;0.40;;
41556;SDS011;27720;51.992;5.890;2023-06-26T11:53:48;1.38;;;0.40;;
41556;SDS011;27720;51.992;5.890;2023-06-26T11:56:17;0.80;;;0.50;;
41556;SDS011;27720;51.992;5.890;2023-06-26T11:59:02;0.98;;;0.50;;
41556;SDS011;27720;51.992;5.890;2023-06-26T12:01:31;0.75;;;0.40;;
41556;SDS011;27720;51.992;5.890;2023-06-26T12:03:59;1.73;;;0.40;;
41556;SDS011;27720;51.992;5.890;2023-06-26T12:06:33;1.70;;;0.40;;
41556;SDS011;27720;51.992;5.890;2023-06-26T12:09:02;3.35;;;0.55;;
41556;SDS011;27720;51.992;5.890;2023-06-26T12:11:31;1.40;;;0.50;;
41556;SDS011;27720;51.992;5.890;2023-06-26T12:13:59;1.02;;;0.45;;
41556;SDS011;27720;51.992;5.890;2023-06-26T12:16:25;1.90;;;0.43;;
41556;SDS011;27720;51.992;5.890;2023-06-26T12:18:59;2.05;;;0.50;;
41556;SDS011;27720;51.992;5.890;2023-06-26T12:21:43;1.02;;;0.50;;
41556;SDS011;27720;51.992;5.890;2023-06-26T12:24:14;1.27;;;0.30;;
41556;SDS011;27720;51.992;5.890;2023-06-26T12:26:45;2.03;;;0.60;;
41556;SDS011;27720;51.992;5.890;2023-06-26T12:29:15;2.53;;;0.50;;
41556;SDS011;27720;51.992;5.890;2023-06-26T12:31:50;1.95;;;0.47;;
41556;SDS011;27720;51.992;5.890;2023-06-26T12:34:20;1.95;;;0.40;;
41556;SDS011;27720;51.992;5.890;2023-06-26T12:36:59;0.88;;;0.40;;
41556;SDS011;27720;51.992;5.890;2023-06-26T12:39:28;0.52;;;0.40;;
41556;SDS011;27720;51.992;5.890;2023-06-26T12:41:58;1.10;;;0.40;;
41556;SDS011;27720;51.992;5.890;2023-06-26T12:44:26;3.03;;;0.60;;
41556;SDS011;27720;51.992;5.890;2023-06-26T12:46:54;2.15;;;0.60;;
41556;SDS011;27720;51.992;5.890;2023-06-26T12:49:37;1.75;;;0.55;;
41556;SDS011;27720;51.992;5.890;2023-06-26T12:52:11;2.95;;;0.30;;
41556;SDS011;27720;51.992;5.890;2023-06-26T12:54:39;3.60;;;0.45;;
41556;SDS011;27720;51.992;5.890;2023-06-26T12:57:07;1.60;;;0.40;;
41556;SDS011;27720;51.992;5.890;2023-06-26T12:59:36;0.98;;;0.30;;
41556;SDS011;27720;51.992;5.890;2023-06-26T13:02:03;0.60;;;0.40;;
41556;SDS011;27720;51.992;5.890;2023-06-26T13:04:29;2.53;;;0.50;;
41556;SDS011;27720;51.992;5.890;2023-06-26T13:06:56;1.67;;;0.50;;
41556;SDS011;27720;51.992;5.890;2023-06-26T13:09:23;1.13;;;0.30;;
41556;SDS011;27720;51.992;5.890;2023-06-26T13:11:50;2.90;;;0.60;;
41556;SDS011;27720;51.992;5.890;2023-06-26T13:14:17;2.55;;;0.60;;
41556;SDS011;27720;51.992;5.890;2023-06-26T13:16:42;0.45;;;0.28;;
41556;SDS011;27720;51.992;5.890;2023-06-26T13:19:09;1.17;;;0.30;;
41556;SDS011;27720;51.992;5.890;2023-06-26T13:21:35;0.80;;;0.40;;
41556;SDS011;27720;51.992;5.890;2023-06-26T13:24:01;2.28;;;0.40;;
41556;SDS011;27720;51.992;5.890;2023-06-26T13:26:29;1.90;;;0.43;;
41556;SDS011;27720;51.992;5.890;2023-06-26T13:28:55;1.05;;;0.30;;
41556;SDS011;27720;51.992;5.890;2023-06-26T13:31:21;1.00;;;0.35;;
41556;SDS011;27720;51.992;5.890;2023-06-26T13:33:49;1.23;;;0.32;;
41556;SDS011;27720;51.992;5.890;2023-06-26T13:36:17;1.55;;;0.50;;
41556;SDS011;27720;51.992;5.890;2023-06-26T13:38:43;1.00;;;0.43;;
41556;SDS011;27720;51.992;5.890;2023-06-26T13:41:09;1.50;;;0.40;;
41556;SDS011;27720;51.992;5.890;2023-06-26T13:43:36;0.70;;;0.30;;
41556;SDS011;27720;51.992;5.890;2023-06-26T13:46:04;0.40;;;0.40;;
41556;SDS011;27720;51.992;5.890;2023-06-26T13:48:30;1.00;;;0.30;;
41556;SDS011;27720;51.992;5.890;2023-06-26T13:50:56;0.70;;;0.22;;
41556;SDS011;27720;51.992;5.890;2023-06-26T13:53:23;1.33;;;0.43;;
41556;SDS011;27720;51.992;5.890;2023-06-26T13:55:49;2.65;;;0.40;;
41556;SDS011;27720;51.992;5.890;2023-06-26T13:58:15;1.35;;;0.32;;
41556;SDS011;27720;51.992;5.890;2023-06-26T14:00:41;1.70;;;0.40;;
41556;SDS011;27720;51.992;5.890;2023-06-26T14:03:10;1.70;;;0.40;;
41556;SDS011;27720;51.992;5.890;2023-06-26T14:05:36;1.40;;;0.50;;
41556;SDS011;27720;51.992;5.890;2023-06-26T14:08:03;2.53;;;0.50;;
41556;SDS011;27720;51.992;5.890;2023-06-26T14:10:30;0.98;;;0.35;;
41556;SDS011;27720;51.992;5.890;2023-06-26T14:12:56;1.83;;;0.30;;
41556;SDS011;27720;51.992;5.890;2023-06-26T14:15:21;1.45;;;0.40;;
41556;SDS011;27720;51.992;5.890;2023-06-26T14:17:47;1.20;;;0.40;;
41556;SDS011;27720;51.992;5.890;2023-06-26T14:20:15;0.98;;;0.30;;
41556;SDS011;27720;51.992;5.890;2023-06-26T14:22:42;1.85;;;0.60;;
41556;SDS011;27720;51.992;5.890;2023-06-26T14:25:10;1.35;;;0.30;;
41556;SDS011;27720;51.992;5.890;2023-06-26T14:27:36;1.48;;;0.40;;
41556;SDS011;27720;51.992;5.890;2023-06-26T14:30:05;0.90;;;0.30;;
41556;SDS011;27720;51.992;5.890;2023-06-26T14:32:32;1.92;;;0.30;;
41556;SDS011;27720;51.992;5.890;2023-06-26T14:34:58;1.77;;;0.30;;
41556;SDS011;27720;51.992;5.890;2023-06-26T14:37:25;0.95;;;0.30;;
41556;SDS011;27720;51.992;5.890;2023-06-26T14:39:51;1.15;;;0.30;;
41556;SDS011;27720;51.992;5.890;2023-06-26T14:42:16;2.00;;;0.30;;
41556;SDS011;27720;51.992;5.890;2023-06-26T14:44:42;1.38;;;0.28;;
41556;SDS011;27720;51.992;5.890;2023-06-26T14:47:12;1.85;;;0.30;;
41556;SDS011;27720;51.992;5.890;2023-06-26T14:49:40;2.42;;;0.38;;
41556;SDS011;27720;51.992;5.890;2023-06-26T14:52:06;0.80;;;0.30;;
41556;SDS011;27720;51.992;5.890;2023-06-26T14:54:35;0.75;;;0.30;;
41556;SDS011;27720;51.992;5.890;2023-06-26T14:57:05;0.68;;;0.30;;
41556;SDS011;27720;51.992;5.890;2023-06-26T14:59:31;1.83;;;0.38;;
41556;SDS011;27720;51.992;5.890;2023-06-26T15:01:57;0.63;;;0.30;;
41556;SDS011;27720;51.992;5.890;2023-06-26T15:04:23;2.08;;;0.47;;
41556;SDS011;27720;51.992;5.890;2023-06-26T15:06:49;1.38;;;0.35;;
41556;SDS011;27720;51.992;5.890;2023-06-26T15:09:14;1.85;;;0.30;;
41556;SDS011;27720;51.992;5.890;2023-06-26T15:11:40;0.43;;;0.20;;
41556;SDS011;27720;51.992;5.890;2023-06-26T15:14:06;0.63;;;0.20;;
41556;SDS011;27720;51.992;5.890;2023-06-26T15:16:32;1.10;;;0.30;;
41556;SDS011;27720;51.992;5.890;2023-06-26T15:18:57;0.60;;;0.30;;
41556;SDS011;27720;51.992;5.890;2023-06-26T15:21:23;1.55;;;0.40;;
41556;SDS011;27720;51.992;5.890;2023-06-26T15:23:49;1.50;;;0.60;;
41556;SDS011;27720;51.992;5.890;2023-06-26T15:26:27;2.22;;;0.35;;
41556;SDS011;27720;51.992;5.890;2023-06-26T15:29:45;3.13;;;0.28;;
41556;SDS011;27720;51.992;5.890;2023-06-26T15:32:48;0.50;;;0.25;;
41556;SDS011;27720;51.992;5.890;2023-06-26T15:35:17;0.70;;;0.30;;
41556;SDS011;27720;51.992;5.890;2023-06-26T15:37:45;2.25;;;0.40;;
41556;SDS011;27720;51.992;5.890;2023-06-26T15:40:40;0.90;;;0.20;;
41556;SDS011;27720;51.992;5.890;2023-06-26T15:43:09;1.98;;;0.30;;
41556;SDS011;27720;51.992;5.890;2023-06-26T15:51:53;0.43;;;0.20;;
41556;SDS011;27720;51.992;5.890;2023-06-26T15:54:48;1.52;;;0.30;;
41556;SDS011;27720;51.992;5.890;2023-06-26T15:58:17;0.40;;;0.30;;
41556;SDS011;27720;51.992;5.890;2023-06-26T16:01:07;1.10;;;0.40;;
41556;SDS011;27720;51.992;5.890;2023-06-26T16:03:59;1.75;;;0.40;;
41556;SDS011;27720;51.992;5.890;2023-06-26T16:06:32;0.80;;;0.38;;
41556;SDS011;27720;51.992;5.890;2023-06-26T16:08:59;1.63;;;0.40;;
41556;SDS011;27720;51.992;5.890;2023-06-26T16:11:25;2.88;;;0.32;;
41556;SDS011;27720;51.992;5.890;2023-06-26T16:13:51;1.75;;;0.20;;
41556;SDS011;27720;51.992;5.890;2023-06-26T16:16:23;1.07;;;0.30;;
41556;SDS011;27720;51.992;5.890;2023-06-26T16:18:48;2.10;;;0.38;;
41556;SDS011;27720;51.992;5.890;2023-06-26T16:21:14;0.47;;;0.30;;
41556;SDS011;27720;51.992;5.890;2023-06-26T16:23:41;0.95;;;0.30;;
41556;SDS011;27720;51.992;5.890;2023-06-26T16:26:08;3.95;;;0.32;;
41556;SDS011;27720;51.992;5.890;2023-06-26T16:28:34;1.73;;;0.38;;
41556;SDS011;27720;51.992;5.890;2023-06-26T16:31:00;0.88;;;0.30;;
41556;SDS011;27720;51.992;5.890;2023-06-26T16:33:30;1.15;;;0.40;;
41556;SDS011;27720;51.992;5.890;2023-06-26T16:35:57;0.90;;;0.50;;
41556;SDS011;27720;51.992;5.890;2023-06-26T16:38:26;0.73;;;0.30;;
41556;SDS011;27720;51.992;5.890;2023-06-26T16:40:52;1.63;;;0.40;;
41556;SDS011;27720;51.992;5.890;2023-06-26T16:43:17;0.75;;;0.30;;
41556;SDS011;27720;51.992;5.890;2023-06-26T16:45:43;0.73;;;0.25;;
41556;SDS011;27720;51.992;5.890;2023-06-26T16:48:09;0.70;;;0.30;;
41556;SDS011;27720;51.992;5.890;2023-06-26T16:50:35;0.77;;;0.25;;
41556;SDS011;27720;51.992;5.890;2023-06-26T16:53:01;0.65;;;0.30;;
41556;SDS011;27720;51.992;5.890;2023-06-26T16:55:26;1.60;;;0.47;;
41556;SDS011;27720;51.992;5.890;2023-06-26T16:57:52;0.55;;;0.28;;
41556;SDS011;27720;51.992;5.890;2023-06-26T17:00:19;0.70;;;0.30;;
41556;SDS011;27720;51.992;5.890;2023-06-26T17:02:45;1.88;;;0.45;;
41556;SDS011;27720;51.992;5.890;2023-06-26T17:05:14;0.95;;;0.35;;
41556;SDS011;27720;51.992;5.890;2023-06-26T17:07:43;0.80;;;0.45;;
41556;SDS011;27720;51.992;5.890;2023-06-26T17:10:08;1.00;;;0.30;;
41556;SDS011;27720;51.992;5.890;2023-06-26T17:12:36;2.13;;;0.47;;
41556;SDS011;27720;51.992;5.890;2023-06-26T17:15:05;1.35;;;0.70;;
41556;SDS011;27720;51.992;5.890;2023-06-26T17:17:31;1.80;;;0.28;;
41556;SDS011;27720;51.992;5.890;2023-06-26T17:19:57;1.20;;;0.40;;
41556;SDS011;27720;51.992;5.890;2023-06-26T17:22:24;1.10;;;0.50;;
41556;SDS011;27720;51.992;5.890;2023-06-26T17:24:50;1.60;;;0.50;;
41556;SDS011;27720;51.992;5.890;2023-06-26T17:27:16;1.10;;;0.40;;
41556;SDS011;27720;51.992;5.890;2023-06-26T17:29:46;1.95;;;0.40;;
41556;SDS011;27720;51.992;5.890;2023-06-26T17:32:12;0.80;;;0.63;;
41556;SDS011;27720;51.992;5.890;2023-06-26T17:34:37;1.02;;;0.38;;
41556;SDS011;27720;51.992;5.890;2023-06-26T17:37:05;1.98;;;0.60;;
41556;SDS011;27720;51.992;5.890;2023-06-26T17:39:34;3.70;;;0.45;;
41556;SDS011;27720;51.992;5.890;2023-06-26T17:42:00;1.42;;;0.50;;
41556;SDS011;27720;51.992;5.890;2023-06-26T17:44:54;1.30;;;0.30;;
41556;SDS011;27720;51.992;5.890;2023-06-26T17:47:20;0.98;;;0.40;;
41556;SDS011;27720;51.992;5.890;2023-06-26T17:49:46;0.90;;;0.40;;